Time;durP1;ratioP1;P1;durP2;ratioP2;P2;SDS_P1;SDS_P2;PMS_P1;PMS_P2;Temp;Humidity;BMP_temperature;BMP_pressure;BME280_temperature;BME280_humidity;BME280_pressure;Samples;Min_cycle;Max_cycle;Signal;HPM_P1;HPM_P2
2022/06/28 00:00:55;;;;;;;7.10;6.40;;;20.90;99.90;;;;;;5133920;28;20104;-72
2022/06/28 00:03:22;;;;;;;9.00;5.75;;;20.90;99.90;;;;;;5133994;28;20421;-72
2022/06/28 00:05:49;;;;;;;7.10;6.20;;;20.90;99.90;;;;;;5134204;28;20435;-72
2022/06/28 00:08:16;;;;;;;7.32;5.90;;;20.80;99.90;;;;;;5123368;28;20052;-72
2022/06/28 00:10:44;;;;;;;9.43;5.85;;;20.80;99.90;;;;;;5117619;28;20048;-72
2022/06/28 00:13:11;;;;;;;7.40;5.82;;;20.80;99.90;;;;;;5116834;28;20065;-72
2022/06/28 00:18:24;;;;;;;7.82;6.32;;;20.70;99.90;;;;;;5117446;28;20047;-71
2022/06/28 00:20:52;;;;;;;8.52;5.53;;;20.70;99.90;;;;;;5117404;28;20089;-72
2022/06/28 00:23:19;;;;;;;7.63;6.10;;;20.70;99.90;;;;;;5116734;28;20070;-72
2022/06/28 00:25:46;;;;;;;6.82;5.70;;;20.80;99.90;;;;;;5117418;28;20055;-72
2022/06/28 00:28:14;;;;;;;7.00;5.72;;;20.70;99.90;;;;;;5116488;28;20088;-72
2022/06/28 00:30:42;;;;;;;7.65;5.88;;;20.70;99.90;;;;;;5099189;28;20047;-72
2022/06/28 00:33:10;;;;;;;6.78;6.07;;;20.70;99.90;;;;;;5098824;28;20138;-72
2022/06/28 00:35:37;;;;;;;8.48;6.63;;;20.60;99.90;;;;;;5098759;28;20502;-72
2022/06/28 00:38:05;;;;;;;8.75;5.88;;;20.60;99.90;;;;;;5099053;28;20139;-72
2022/06/28 00:40:33;;;;;;;8.50;6.28;;;20.60;99.90;;;;;;5098244;28;20082;-72
2022/06/28 00:43:01;;;;;;;7.70;6.38;;;20.60;99.90;;;;;;5116869;28;20036;-72
2022/06/28 00:45:28;;;;;;;7.03;6.30;;;20.50;99.90;;;;;;5117705;28;20108;-71
2022/06/28 00:47:57;;;;;;;8.60;5.85;;;20.50;99.90;;;;;;5116978;28;20051;-71
2022/06/28 00:50:25;;;;;;;7.85;7.03;;;20.60;99.90;;;;;;5098918;28;20574;-75
2022/06/28 00:53:07;;;;;;;6.78;6.07;;;20.60;99.90;;;;;;5116736;28;20047;-73
2022/06/28 00:55:35;;;;;;;7.43;6.60;;;20.50;99.90;;;;;;5098697;28;20047;-72
2022/06/28 00:58:03;;;;;;;8.38;7.15;;;20.40;99.90;;;;;;5116140;28;20111;-72
2022/06/28 01:00:31;;;;;;;7.60;6.28;;;20.40;99.90;;;;;;5116661;28;20040;-72
2022/06/28 01:03:01;;;;;;;7.18;6.13;;;20.30;99.90;;;;;;5098123;28;20040;-71
2022/06/28 01:05:29;;;;;;;7.85;6.55;;;20.30;99.90;;;;;;5098349;28;20469;-71
2022/06/28 01:07:57;;;;;;;7.00;6.30;;;20.30;99.90;;;;;;5098031;28;20116;-71
2022/06/28 01:10:26;;;;;;;11.18;6.80;;;20.30;99.90;;;;;;5098235;28;20050;-71
2022/06/28 01:12:53;;;;;;;7.78;6.45;;;20.20;99.90;;;;;;5097435;28;20039;-71
2022/06/28 01:15:21;;;;;;;10.35;6.80;;;20.20;99.90;;;;;;5116617;28;20043;-71
2022/06/28 01:17:53;;;;;;;6.90;6.25;;;20.20;99.90;;;;;;5098063;28;20051;-71
2022/06/28 01:20:48;;;;;;;7.53;6.70;;;20.20;99.90;;;;;;5113639;28;20071;-71
2022/06/28 01:23:22;;;;;;;7.68;6.93;;;20.20;99.90;;;;;;5116000;28;20066;-71
2022/06/28 01:26:23;;;;;;;7.70;7.00;;;20.10;99.90;;;;;;5092883;28;20055;-72
2022/06/28 01:28:52;;;;;;;23.88;18.98;;;20.00;99.90;;;;;;5097224;28;20432;-72
2022/06/28 01:31:39;;;;;;;8.65;7.50;;;20.00;99.90;;;;;;5095343;28;20059;-71
2022/06/28 01:34:09;;;;;;;9.13;7.07;;;20.00;99.90;;;;;;5095543;28;20036;-71
2022/06/28 01:36:36;;;;;;;8.18;7.38;;;20.00;99.90;;;;;;5077760;28;20139;-71
2022/06/28 01:39:06;;;;;;;10.35;7.88;;;19.90;99.90;;;;;;5077649;28;20052;-72
2022/06/28 01:41:34;;;;;;;9.40;7.43;;;19.90;99.90;;;;;;5095498;28;20048;-73
2022/06/28 01:44:15;;;;;;;10.05;8.57;;;19.90;99.90;;;;;;5092720;28;20048;-73
2022/06/28 01:46:57;;;;;;;9.57;7.13;;;19.90;99.90;;;;;;5097809;28;20463;-72
2022/06/28 01:49:35;;;;;;;10.52;7.53;;;19.90;99.90;;;;;;5097993;28;20044;-72
2022/06/28 01:52:03;;;;;;;8.48;7.68;;;19.90;99.90;;;;;;5097555;28;20139;-72
2022/06/28 01:54:31;;;;;;;9.98;7.53;;;19.90;99.90;;;;;;5097627;28;20154;-72
2022/06/28 01:56:59;;;;;;;9.02;7.85;;;19.90;99.90;;;;;;5098334;28;20406;-72
2022/06/28 01:59:33;;;;;;;8.25;7.28;;;19.90;99.90;;;;;;5098167;28;20043;-72
2022/06/28 02:02:06;;;;;;;13.15;8.00;;;19.90;99.90;;;;;;5098182;28;20502;-72
2022/06/28 02:04:50;;;;;;;9.60;7.80;;;19.90;99.90;;;;;;5097482;28;20050;-72
2022/06/28 02:07:19;;;;;;;10.77;7.65;;;19.90;99.90;;;;;;5097044;28;20048;-72
2022/06/28 02:09:48;;;;;;;10.38;7.90;;;19.80;99.90;;;;;;5097702;28;20134;-72
2022/06/28 02:12:15;;;;;;;8.52;7.60;;;19.70;99.90;;;;;;5087687;28;20067;-72
2022/06/28 02:14:43;;;;;;;9.25;7.65;;;19.70;99.90;;;;;;5093753;28;20506;-72
2022/06/28 02:17:11;;;;;;;8.90;8.02;;;19.70;99.90;;;;;;5096973;28;20441;-72
2022/06/28 02:19:38;;;;;;;9.75;8.43;;;19.60;99.90;;;;;;5096820;28;20490;-72
2022/06/28 02:22:07;;;;;;;8.85;7.95;;;19.60;99.90;;;;;;5096749;28;20051;-72
2022/06/28 02:24:35;;;;;;;8.77;7.85;;;19.60;99.90;;;;;;5096303;28;20051;-72
2022/06/28 02:27:04;;;;;;;10.30;8.00;;;19.60;99.90;;;;;;5115220;28;20039;-72
2022/06/28 02:29:31;;;;;;;11.25;8.40;;;19.60;99.90;;;;;;5111183;28;20040;-72
2022/06/28 02:31:59;;;;;;;9.02;8.13;;;19.50;99.90;;;;;;5095861;28;20078;-72
2022/06/28 02:42:41;;;;;;;9.65;8.65;;;19.40;99.90;;;;;;5077790;28;20040;-72
2022/06/28 02:45:09;;;;;;;10.10;9.10;;;19.40;99.90;;;;;;5112758;28;20498;-72
2022/06/28 02:47:37;;;;;;;10.07;9.07;;;19.40;99.90;;;;;;5114468;28;20093;-72
2022/06/28 02:50:05;;;;;;;10.23;9.07;;;19.30;99.90;;;;;;5077771;28;20047;-72
2022/06/28 02:52:33;;;;;;;9.70;8.57;;;19.30;99.90;;;;;;5086467;28;20181;-72
2022/06/28 02:55:00;;;;;;;10.10;9.20;;;19.30;99.90;;;;;;5096328;28;20093;-72
2022/06/28 02:57:28;;;;;;;11.13;9.77;;;19.20;99.90;;;;;;5095510;28;20112;-72
2022/06/28 02:59:57;;;;;;;11.77;9.88;;;19.20;99.90;;;;;;5094277;28;20055;-72
2022/06/28 03:02:24;;;;;;;13.57;10.23;;;19.20;99.90;;;;;;5113932;28;20092;-71
2022/06/28 03:04:52;;;;;;;12.25;10.55;;;19.20;99.90;;;;;;5095987;28;20071;-72
2022/06/28 03:07:19;;;;;;;11.15;10.00;;;19.20;99.90;;;;;;5095650;28;20577;-72
2022/06/28 03:09:47;;;;;;;11.50;9.90;;;19.20;99.90;;;;;;5092077;28;20560;-72
2022/06/28 03:12:14;;;;;;;12.30;10.23;;;19.20;99.90;;;;;;5092654;28;20043;-71
2022/06/28 03:14:41;;;;;;;11.73;10.55;;;19.30;99.90;;;;;;5110685;28;20092;-71
2022/06/28 03:17:10;;;;;;;12.50;10.68;;;19.30;99.90;;;;;;5096008;28;20047;-71
2022/06/28 03:19:37;;;;;;;10.73;9.65;;;19.40;99.90;;;;;;5114283;28;20443;-72
2022/06/28 03:22:05;;;;;;;13.18;10.45;;;19.40;99.90;;;;;;5095565;28;20505;-72
2022/06/28 03:24:32;;;;;;;11.85;9.90;;;19.40;99.90;;;;;;5095484;28;20058;-72
2022/06/28 03:26:59;;;;;;;10.85;9.85;;;19.50;99.90;;;;;;5095834;28;20571;-72
2022/06/28 03:29:27;;;;;;;11.05;9.98;;;19.50;99.90;;;;;;5091354;28;20035;-72
2022/06/28 03:31:55;;;;;;;11.43;10.25;;;19.50;99.90;;;;;;5096286;28;20048;-72
2022/06/28 03:34:23;;;;;;;11.80;10.70;;;19.60;99.90;;;;;;5080634;28;20105;-72
2022/06/28 03:36:52;;;;;;;14.50;10.30;;;19.70;99.90;;;;;;5075306;28;20054;-72
2022/06/28 03:39:42;;;;;;;11.65;10.50;;;19.80;99.90;;;;;;5101231;28;20047;-72
2022/06/28 03:42:09;;;;;;;12.02;10.82;;;19.90;99.90;;;;;;5095743;28;20048;-72
2022/06/28 03:44:39;;;;;;;10.95;9.82;;;20.00;99.90;;;;;;5077227;28;20083;-72
2022/06/28 03:47:08;;;;;;;11.25;10.13;;;20.10;99.90;;;;;;5075460;28;20054;-72
2022/06/28 03:49:56;;;;;;;11.63;10.43;;;20.20;99.90;;;;;;5093398;28;20043;-71
2022/06/28 03:52:52;;;;;;;11.43;10.23;;;20.30;99.90;;;;;;5082471;28;20059;-72
2022/06/28 03:55:37;;;;;;;11.05;9.98;;;20.30;99.90;;;;;;5085075;28;20398;-72
2022/06/28 03:58:06;;;;;;;12.45;8.88;;;20.50;99.90;;;;;;5080623;28;20096;-72
2022/06/28 04:00:34;;;;;;;10.00;9.10;;;20.90;99.90;;;;;;5093747;28;20108;-72
2022/06/28 04:03:01;;;;;;;9.60;8.20;;;21.30;99.90;;;;;;5095400;28;20418;-73
2022/06/28 04:05:38;;;;;;;10.38;8.55;;;21.90;99.90;;;;;;5080584;28;20499;-71
2022/06/28 04:08:08;;;;;;;12.27;9.43;;;22.30;99.90;;;;;;5079465;28;20054;-72
2022/06/28 04:10:48;;;;;;;10.90;9.75;;;22.40;99.90;;;;;;5091710;28;20055;-71
2022/06/28 04:13:21;;;;;;;10.30;9.18;;;22.80;99.90;;;;;;5092890;28;20044;-72
2022/06/28 04:15:49;;;;;;;11.05;9.70;;;23.20;99.90;;;;;;5094951;28;20086;-72
2022/06/28 04:18:22;;;;;;;8.98;7.80;;;23.40;99.90;;;;;;5094710;28;20521;-71
2022/06/28 04:20:51;;;;;;;13.20;7.63;;;23.60;99.90;;;;;;5113301;28;20089;-71
2022/06/28 04:23:18;;;;;;;12.73;7.43;;;23.90;99.90;;;;;;5094887;28;20051;-71
2022/06/28 04:25:46;;;;;;;14.23;7.43;;;24.00;99.90;;;;;;5095102;28;20040;-71
2022/06/28 04:28:21;;;;;;;14.13;7.05;;;24.40;99.90;;;;;;5094194;28;20109;-71
2022/06/28 04:31:00;;;;;;;12.27;7.30;;;25.00;99.90;;;;;;5094704;28;20043;-72
2022/06/28 04:33:29;;;;;;;9.43;6.32;;;25.60;99.90;;;;;;5094777;28;20072;-72
2022/06/28 04:35:59;;;;;;;12.98;7.05;;;25.90;99.90;;;;;;5094907;28;20126;-72
2022/06/28 04:38:28;;;;;;;7.63;6.78;;;26.10;99.90;;;;;;5095380;28;20138;-72
2022/06/28 04:41:17;;;;;;;11.15;6.82;;;26.20;99.90;;;;;;5113056;28;20093;-72
2022/06/28 04:43:58;;;;;;;16.52;7.22;;;26.50;99.90;;;;;;5084697;28;20044;-72
2022/06/28 04:46:32;;;;;;;10.05;6.82;;;26.60;99.90;;;;;;5093428;28;20047;-72
2022/06/28 04:49:04;;;;;;;9.57;6.07;;;27.10;99.90;;;;;;5094766;28;20406;-72
2022/06/28 04:51:43;;;;;;;10.43;6.05;;;27.50;99.90;;;;;;5095127;28;20043;-72
2022/06/28 04:54:15;;;;;;;10.15;5.35;;;28.30;99.90;;;;;;5094711;28;20047;-72
2022/06/28 04:57:11;;;;;;;;;;;29.10;99.90;;;;;;5103328;28;20422;-72
2022/06/28 04:59:40;;;;;;;7.15;5.35;;;29.90;99.90;;;;;;5097382;28;19926;-71
2022/06/28 05:02:15;;;;;;;7.13;6.22;;;30.30;99.90;;;;;;5098185;28;20049;-72
2022/06/28 05:04:42;;;;;;;12.05;6.35;;;30.30;99.90;;;;;;5097992;28;20047;-72
2022/06/28 05:07:18;;;;;;;11.25;5.47;;;30.30;99.90;;;;;;5097450;28;20052;-72
2022/06/28 05:09:46;;;;;;;6.75;5.28;;;31.00;99.90;;;;;;5097708;28;20035;-72
2022/06/28 05:12:13;;;;;;;7.68;5.97;;;30.70;99.90;;;;;;5098094;28;20077;-71
2022/06/28 05:14:41;;;;;;;9.18;5.45;;;30.60;99.90;;;;;;5097329;28;20047;-71
2022/06/28 05:17:11;;;;;;;7.60;5.82;;;30.50;99.90;;;;;;5098081;28;20062;-71
2022/06/28 05:19:39;;;;;;;10.88;6.47;;;30.80;99.90;;;;;;5097786;28;20565;-72
2022/06/28 05:22:08;;;;;;;10.35;5.93;;;31.00;99.90;;;;;;5098081;28;20134;-72
2022/06/28 05:24:46;;;;;;;11.88;6.10;;;31.30;99.90;;;;;;5097743;28;20044;-72
2022/06/28 05:27:13;;;;;;;12.80;6.07;;;31.50;99.90;;;;;;5115477;28;20074;-71
2022/06/28 05:29:41;;;;;;;10.20;6.35;;;32.20;99.90;;;;;;5097377;28;20131;-71
2022/06/28 05:32:09;;;;;;;11.32;5.93;;;32.20;99.90;;;;;;5096513;28;20043;-71
2022/06/28 05:34:36;;;;;;;14.90;6.07;;;31.30;99.90;;;;;;5110069;28;20097;-72
2022/06/28 05:37:06;;;;;;;16.88;7.18;;;31.10;99.90;;;;;;5096815;28;20051;-72
2022/06/28 05:39:33;;;;;;;50.53;10.50;;;31.00;99.90;;;;;;5096861;28;20047;-72
2022/06/28 05:42:02;;;;;;;28.60;7.38;;;31.20;99.90;;;;;;5115444;28;20043;-73
2022/06/28 05:44:30;;;;;;;20.30;6.53;;;31.60;99.90;;;;;;5096906;28;20044;-72
2022/06/28 05:46:57;;;;;;;11.38;5.85;;;32.00;99.90;;;;;;5097459;28;20132;-72
2022/06/28 05:49:24;;;;;;;7.70;6.63;;;32.20;99.90;;;;;;5096133;28;20126;-72
2022/06/28 05:51:52;;;;;;;8.68;5.60;;;32.40;99.90;;;;;;5096602;28;20039;-72
2022/06/28 05:54:19;;;;;;;11.25;6.22;;;32.80;99.90;;;;;;5096373;28;20043;-72
2022/06/28 05:56:47;;;;;;;8.77;5.75;;;32.90;99.90;;;;;;5113945;28;20092;-73
2022/06/28 05:59:15;;;;;;;8.60;6.53;;;32.60;99.90;;;;;;5096676;28;20489;-71
2022/06/28 06:01:43;;;;;;;12.65;7.18;;;32.60;99.90;;;;;;5112838;28;20046;-72
2022/06/28 06:04:10;;;;;;;17.75;7.35;;;32.60;99.90;;;;;;5085513;28;20070;-71
2022/06/28 06:06:37;;;;;;;12.85;11.52;;;32.70;99.90;;;;;;5096608;28;20051;-72
2022/06/28 06:09:06;;;;;;;17.08;13.57;;;32.00;99.90;;;;;;5096931;28;20507;-71
2022/06/28 06:11:33;;;;;;;13.30;7.68;;;31.80;99.90;;;;;;5085469;28;20078;-72
2022/06/28 06:14:00;;;;;;;9.95;7.43;;;31.80;99.90;;;;;;5114053;28;20043;-72
2022/06/28 06:16:29;;;;;;;11.68;6.90;;;31.70;99.90;;;;;;5091580;28;20047;-72
2022/06/28 06:18:58;;;;;;;17.95;7.57;;;31.00;99.90;;;;;;5083765;28;20064;-72
2022/06/28 06:21:26;;;;;;;11.88;7.45;;;30.60;99.90;;;;;;5095358;28;20043;-72
2022/06/28 06:23:53;;;;;;;14.27;7.80;;;30.60;99.90;;;;;;5095178;28;20043;-71
2022/06/28 06:26:39;;;;;;;11.82;7.63;;;30.80;99.90;;;;;;5114091;28;20111;-72
2022/06/28 06:29:06;;;;;;;12.05;6.03;;;31.10;99.90;;;;;;5096339;28;20055;-73
2022/06/28 06:31:35;;;;;;;13.15;6.85;;;31.00;99.90;;;;;;5096535;28;20050;-72
2022/06/28 06:34:21;;;;;;;9.55;5.68;;;31.10;99.90;;;;;;5114432;28;20055;-72
2022/06/28 06:36:51;;;;;;;13.60;7.32;;;31.00;99.90;;;;;;5095669;28;20067;-73
2022/06/28 06:39:19;;;;;;;8.45;6.05;;;31.00;99.90;;;;;;5096069;28;20552;-72
2022/06/28 06:41:47;;;;;;;11.05;7.10;;;31.10;99.90;;;;;;5096554;28;20379;-73
2022/06/28 06:44:15;;;;;;;11.38;7.07;;;31.10;99.90;;;;;;5095752;28;20051;-73
2022/06/28 06:46:44;;;;;;;19.05;8.23;;;31.10;99.90;;;;;;5095539;28;20081;-71
2022/06/28 06:49:14;;;;;;;22.52;10.25;;;31.50;99.90;;;;;;5094974;28;20047;-72
2022/06/28 06:51:44;;;;;;;18.08;9.85;;;31.70;99.90;;;;;;5113970;28;20035;-72
2022/06/28 06:54:12;;;;;;;17.85;11.55;;;31.90;99.90;;;;;;5091432;28;20050;-72
2022/06/28 06:56:42;;;;;;;13.23;7.50;;;32.00;99.90;;;;;;5087131;28;20070;-72
2022/06/28 06:59:12;;;;;;;12.05;8.10;;;32.00;99.90;;;;;;5075761;28;20047;-73
2022/06/28 07:01:40;;;;;;;20.95;8.27;;;32.10;99.90;;;;;;5091481;28;20035;-72
2022/06/28 07:04:11;;;;;;;15.23;11.27;;;32.30;99.90;;;;;;5095767;28;20039;-72
2022/06/28 07:06:38;;;;;;;14.27;8.77;;;32.40;99.90;;;;;;5114442;28;20044;-72
2022/06/28 07:09:06;;;;;;;17.02;8.10;;;32.40;99.90;;;;;;5113863;28;20058;-72
2022/06/28 07:11:34;;;;;;;17.00;9.63;;;32.50;99.90;;;;;;5095641;28;20515;-72
2022/06/28 07:14:02;;;;;;;15.85;8.60;;;32.40;99.90;;;;;;5095434;28;20097;-71
2022/06/28 07:16:29;;;;;;;11.45;7.20;;;32.30;99.90;;;;;;5095202;28;20378;-71
2022/06/28 07:18:56;;;;;;;13.55;7.38;;;32.30;99.90;;;;;;5076854;28;20051;-72
2022/06/28 07:21:27;;;;;;;10.55;7.10;;;32.30;99.90;;;;;;5093486;28;20501;-72
2022/06/28 07:23:54;;;;;;;12.18;7.25;;;32.50;99.90;;;;;;5097959;28;20093;-72
2022/06/28 07:26:23;;;;;;;10.75;7.88;;;32.50;99.90;;;;;;5120571;28;20054;-72
2022/06/28 07:28:50;;;;;;;12.93;8.65;;;32.10;99.90;;;;;;5084778;28;20048;-72
2022/06/28 07:31:18;;;;;;;13.85;7.90;;;32.00;99.90;;;;;;5092867;28;20047;-72
2022/06/28 07:33:46;;;;;;;9.88;6.82;;;31.70;99.90;;;;;;5093764;28;20040;-72
2022/06/28 07:36:18;;;;;;;10.15;7.18;;;31.80;99.90;;;;;;5092130;28;20096;-72
2022/06/28 07:38:48;;;;;;;8.38;6.50;;;31.60;99.90;;;;;;5091295;28;20054;-71
2022/06/28 07:41:20;;;;;;;8.70;5.97;;;31.40;99.90;;;;;;5101581;28;20044;-71
2022/06/28 07:44:06;;;;;;;55.22;17.17;;;31.30;99.90;;;;;;5108770;28;20419;-72
2022/06/28 07:46:34;;;;;;;9.90;5.47;;;31.60;99.90;;;;;;5086786;28;20055;-71
2022/06/28 07:49:02;;;;;;;12.52;6.03;;;31.70;99.90;;;;;;5079571;28;20402;-71
2022/06/28 07:54:20;;;;;;;10.98;6.25;;;32.00;99.90;;;;;;5082310;28;20047;-72
2022/06/28 07:57:19;;;;;;;10.88;7.22;;;32.10;99.90;;;;;;5075411;28;20051;-72
2022/06/28 07:59:46;;;;;;;10.13;6.55;;;32.50;99.90;;;;;;5092566;28;20560;-72
2022/06/28 08:02:14;;;;;;;7.75;5.60;;;32.20;99.90;;;;;;5113210;28;20122;-72
2022/06/28 08:04:45;;;;;;;6.97;4.40;;;31.80;99.90;;;;;;5095053;28;20054;-72
2022/06/28 08:07:13;;;;;;;8.13;4.97;;;32.00;99.90;;;;;;5082758;28;20044;-72
2022/06/28 08:09:42;;;;;;;7.78;4.85;;;32.30;99.90;;;;;;5123388;22;20075;-72
2022/06/28 08:12:10;;;;;;;6.13;4.40;;;32.30;99.90;;;;;;5084304;28;20059;-72
2022/06/28 08:14:39;;;;;;;7.70;4.45;;;32.20;99.90;;;;;;5091750;28;20044;-74
2022/06/28 08:17:07;;;;;;;7.38;4.45;;;32.50;99.90;;;;;;5078988;28;20158;-72
2022/06/28 08:19:36;;;;;;;6.13;4.18;;;32.60;99.90;;;;;;5090698;28;20139;-72
2022/06/28 08:22:03;;;;;;;5.88;3.55;;;32.60;99.30;;;;;;5084250;28;20146;-72
2022/06/28 08:24:31;;;;;;;6.35;3.05;;;32.40;88.60;;;;;;5082271;28;20048;-72
2022/06/28 08:27:00;;;;;;;8.82;3.83;;;32.10;85.70;;;;;;5076056;28;20139;-71
2022/06/28 08:29:30;;;;;;;5.40;3.40;;;31.90;83.90;;;;;;5079744;28;20052;-73
2022/06/28 08:31:57;;;;;;;5.43;3.30;;;31.90;81.20;;;;;;5115312;28;20063;-72
2022/06/28 08:34:25;;;;;;;6.15;3.20;;;32.10;80.70;;;;;;5121336;28;20081;-72
2022/06/28 08:36:54;;;;;;;5.68;3.63;;;32.30;80.10;;;;;;5110545;28;20107;-71
2022/06/28 08:39:22;;;;;;;8.38;3.72;;;32.30;79.20;;;;;;5114747;28;20046;-72
2022/06/28 08:41:49;;;;;;;9.23;3.42;;;32.50;79.00;;;;;;5111177;28;20040;-72
2022/06/28 08:44:18;;;;;;;6.30;4.18;;;32.30;78.20;;;;;;5109265;28;20452;-71
2022/06/28 08:46:49;;;;;;;4.88;3.20;;;32.30;79.00;;;;;;5113966;28;20138;-72
2022/06/28 08:49:23;;;;;;;7.40;3.15;;;32.60;77.40;;;;;;5102759;28;20124;-71
2022/06/28 08:51:52;;;;;;;7.20;3.35;;;32.50;78.50;;;;;;5113714;28;20479;-72
2022/06/28 08:54:20;;;;;;;6.00;3.85;;;32.60;77.20;;;;;;5108136;28;20075;-72
2022/06/28 08:56:49;;;;;;;8.45;4.72;;;32.70;77.40;;;;;;5108843;28;20112;-72
2022/06/28 08:59:19;;;;;;;7.00;3.45;;;32.60;77.60;;;;;;5099243;28;20059;-71
2022/06/28 09:01:46;;;;;;;7.82;3.95;;;32.80;76.60;;;;;;5097925;28;20093;-72
2022/06/28 09:04:14;;;;;;;5.15;3.60;;;32.80;77.50;;;;;;5099756;28;20095;-72
2022/06/28 09:06:42;;;;;;;9.00;3.50;;;33.00;77.40;;;;;;5097895;28;20040;-72
2022/06/28 09:09:09;;;;;;;5.40;3.25;;;33.10;75.10;;;;;;5097257;28;20072;-72
2022/06/28 09:11:38;;;;;;;4.93;3.40;;;33.00;75.30;;;;;;5098667;28;20115;-71
2022/06/28 09:17:17;;;;;;;6.05;3.10;;;33.00;74.50;;;;;;5093213;27;20397;-71
2022/06/28 09:19:44;;;;;;;5.70;2.92;;;32.50;76.10;;;;;;5072818;28;20049;-72
2022/06/28 09:22:29;;;;;;;5.68;3.47;;;32.40;76.10;;;;;;5074199;28;20040;-72
2022/06/28 09:24:57;;;;;;;6.07;3.70;;;32.60;74.10;;;;;;5073394;28;20056;-72
2022/06/28 09:27:29;;;;;;;6.18;3.92;;;32.80;74.30;;;;;;5072270;28;20040;-71
2022/06/28 09:29:57;;;;;;;5.47;3.47;;;33.00;75.50;;;;;;5085907;22;20115;-71
2022/06/28 09:32:31;;;;;;;6.97;3.63;;;33.10;75.00;;;;;;5060594;28;20045;-72
2022/06/28 09:35:00;;;;;;;5.07;3.15;;;32.70;74.50;;;;;;5070289;28;20060;-70
2022/06/28 09:37:36;;;;;;;5.65;2.83;;;32.60;74.80;;;;;;5070145;28;20045;-71
2022/06/28 09:40:12;;;;;;;5.00;3.40;;;32.90;74.70;;;;;;5068954;28;20049;-71
2022/06/28 09:42:39;;;;;;;7.13;3.88;;;33.00;72.80;;;;;;5068994;28;20419;-71
2022/06/28 09:45:08;;;;;;;6.35;3.28;;;33.00;72.30;;;;;;5070702;28;20119;-70
2022/06/28 09:47:42;;;;;;;6.38;3.20;;;32.90;71.10;;;;;;5071070;28;20040;-70
2022/06/28 09:50:12;;;;;;;14.33;6.87;;;33.00;71.90;;;;;;5071512;28;20119;-71
2022/06/28 09:52:45;;;;;;;8.13;4.80;;;33.20;72.70;;;;;;5075997;28;20292;-71
2022/06/28 09:55:16;;;;;;;6.47;4.03;;;33.20;72.60;;;;;;5070921;28;20076;-70
2022/06/28 09:57:45;;;;;;;8.05;3.95;;;33.10;73.40;;;;;;5069732;28;20128;-70
2022/06/28 10:00:14;;;;;;;7.72;4.28;;;33.20;72.70;;;;;;5069377;28;20053;-70
2022/06/28 10:02:43;;;;;;;4.40;3.30;;;33.10;71.40;;;;;;5068819;28;20048;-70
2022/06/28 10:05:11;;;;;;;6.80;3.85;;;32.90;71.20;;;;;;5069131;28;20045;-70
2022/06/28 10:07:39;;;;;;;5.82;4.13;;;33.10;71.80;;;;;;5069467;28;20045;-71
2022/06/28 10:10:09;;;;;;;8.35;4.05;;;33.00;72.20;;;;;;5069894;28;20044;-70
2022/06/28 10:15:24;;;;;;;6.40;3.58;;;32.90;73.80;;;;;;5072259;28;20052;-70
2022/06/28 10:17:56;;;;;;;4.63;3.15;;;32.60;72.20;;;;;;5071860;28;20091;-70
2022/06/28 10:20:26;;;;;;;6.72;3.10;;;32.50;69.20;;;;;;5076896;28;20036;-71
2022/06/28 10:23:14;;;;;;;4.80;3.42;;;32.60;70.80;;;;;;5078049;28;20148;-71
2022/06/28 10:25:41;;;;;;;7.38;5.22;;;32.80;70.60;;;;;;5083641;28;20090;-72
2022/06/28 10:28:27;;;;;;;8.70;5.07;;;33.10;71.60;;;;;;5065193;28;20049;-71
2022/06/28 10:31:34;;;;;;;6.50;4.22;;;33.00;73.40;;;;;;5050069;28;20057;-72
2022/06/28 10:34:07;;;;;;;6.50;3.53;;;33.20;71.60;;;;;;5034841;28;20069;-70
2022/06/28 10:36:44;;;;;;;6.72;3.97;;;33.30;70.60;;;;;;5035884;28;20151;-71
2022/06/28 10:39:15;;;;;;;7.65;4.22;;;33.50;71.30;;;;;;5033942;28;20112;-71
2022/06/28 10:41:44;;;;;;;5.68;4.38;;;32.90;72.40;;;;;;5028835;28;20069;-71
2022/06/28 10:44:13;;;;;;;9.43;6.10;;;33.20;72.00;;;;;;5035834;28;20439;-71
2022/06/28 10:46:42;;;;;;;7.28;5.80;;;33.40;72.20;;;;;;5035682;28;20389;-72
2022/06/28 10:49:12;;;;;;;6.97;5.22;;;33.50;72.10;;;;;;5035389;28;20476;-70
2022/06/28 10:52:10;;;;;;;7.55;4.47;;;33.50;74.20;;;;;;5034170;28;20100;-70
2022/06/28 10:54:40;;;;;;;11.15;4.72;;;33.60;74.10;;;;;;5035111;28;20357;-70
2022/06/28 10:57:22;;;;;;;5.50;4.05;;;33.60;73.60;;;;;;5034079;28;20061;-71
2022/06/28 10:59:51;;;;;;;6.65;5.18;;;33.50;71.10;;;;;;5034253;28;20042;-70
2022/06/28 11:02:19;;;;;;;6.88;3.78;;;33.40;69.90;;;;;;5036666;28;20037;-71
2022/06/28 11:05:04;;;;;;;10.80;7.30;;;33.40;69.40;;;;;;5034242;28;20103;-70
2022/06/28 11:07:34;;;;;;;11.30;8.10;;;33.40;69.40;;;;;;5034098;28;20052;-71
2022/06/28 11:10:13;;;;;;;6.97;4.88;;;33.20;69.20;;;;;;5030874;28;20099;-71
2022/06/28 11:12:42;;;;;;;11.15;7.78;;;33.40;69.40;;;;;;5030006;28;20088;-71
2022/06/28 11:15:11;;;;;;;7.30;4.10;;;33.50;70.60;;;;;;5034187;28;20045;-70
2022/06/28 11:17:41;;;;;;;7.20;3.80;;;33.40;71.00;;;;;;5035270;28;20091;-70
2022/06/28 11:20:12;;;;;;;8.95;4.78;;;33.60;72.50;;;;;;5033869;28;20041;-70
2022/06/28 11:22:42;;;;;;;11.13;3.78;;;33.70;72.80;;;;;;5036700;28;20073;-71
2022/06/28 11:25:11;;;;;;;8.32;4.05;;;33.60;72.40;;;;;;5034907;28;20054;-71
2022/06/28 11:27:45;;;;;;;8.32;5.15;;;33.70;72.60;;;;;;5037018;28;20120;-71
2022/06/28 11:30:12;;;;;;;5.25;3.50;;;33.80;72.40;;;;;;5036307;28;20063;-72
2022/06/28 11:32:41;;;;;;;5.03;3.30;;;33.60;71.60;;;;;;5035050;28;20044;-71
2022/06/28 11:35:12;;;;;;;6.10;3.95;;;33.50;71.20;;;;;;5035345;28;20064;-72
2022/06/28 11:37:51;;;;;;;4.32;3.17;;;33.30;72.60;;;;;;5034199;28;20064;-71
2022/06/28 11:40:19;;;;;;;6.10;3.40;;;33.30;71.40;;;;;;5032209;28;20045;-71
2022/06/28 11:42:48;;;;;;;4.80;3.17;;;33.20;70.20;;;;;;5032722;28;20041;-70
2022/06/28 11:45:16;;;;;;;7.15;3.33;;;33.20;71.40;;;;;;5034284;28;20412;-71
2022/06/28 11:47:45;;;;;;;7.78;3.70;;;33.40;71.50;;;;;;5034247;28;20072;-71
2022/06/28 11:50:18;;;;;;;5.55;3.97;;;33.40;71.30;;;;;;5031991;28;20045;-72
2022/06/28 11:52:47;;;;;;;6.50;3.50;;;33.40;71.90;;;;;;5032071;28;20041;-71
2022/06/28 11:55:15;;;;;;;7.18;3.20;;;33.00;71.60;;;;;;5034222;28;20049;-71
2022/06/28 11:57:44;;;;;;;4.03;3.15;;;32.90;71.80;;;;;;5033234;28;20503;-70
2022/06/28 12:00:14;;;;;;;6.65;3.28;;;32.70;72.80;;;;;;5034187;28;20069;-71
2022/06/28 12:02:49;;;;;;;3.65;2.95;;;32.60;72.20;;;;;;5033553;28;20056;-69
2022/06/28 12:05:30;;;;;;;5.88;3.70;;;32.50;73.40;;;;;;5036306;28;20044;-71
2022/06/28 12:07:58;;;;;;;4.47;3.17;;;32.60;73.70;;;;;;5041255;28;20065;-71
2022/06/28 12:10:28;;;;;;;5.28;3.53;;;32.90;72.30;;;;;;5043395;28;20076;-70
2022/06/28 12:12:57;;;;;;;7.93;4.25;;;33.10;73.10;;;;;;5047362;28;20055;-72
2022/06/28 12:15:26;;;;;;;8.18;3.58;;;33.30;72.90;;;;;;5042839;28;20053;-71
2022/06/28 12:17:58;;;;;;;12.15;4.00;;;33.40;73.10;;;;;;5039693;28;20091;-71
2022/06/28 12:20:27;;;;;;;5.53;3.67;;;33.40;71.90;;;;;;5038594;28;20045;-71
2022/06/28 12:22:59;;;;;;;6.43;3.45;;;33.30;71.90;;;;;;5041091;28;20075;-71
2022/06/28 12:25:27;;;;;;;4.78;3.47;;;33.20;72.50;;;;;;5034311;28;20485;-71
2022/06/28 12:27:54;;;;;;;7.57;4.43;;;33.10;73.10;;;;;;5036347;28;20041;-71
2022/06/28 12:30:22;;;;;;;6.15;3.72;;;33.00;72.10;;;;;;5037576;28;20058;-71
2022/06/28 12:32:52;;;;;;;8.18;3.42;;;33.10;73.20;;;;;;5038299;28;20075;-71
2022/06/28 12:35:20;;;;;;;6.63;3.38;;;33.20;72.50;;;;;;5044632;28;20052;-71
2022/06/28 12:37:49;;;;;;;7.00;4.15;;;33.20;71.80;;;;;;5037878;28;20068;-70
2022/06/28 12:40:18;;;;;;;7.45;3.55;;;33.10;73.00;;;;;;5040884;28;20071;-70
2022/06/28 12:42:45;;;;;;;5.03;3.78;;;33.20;72.20;;;;;;5032509;28;20037;-71
2022/06/28 12:45:12;;;;;;;6.03;3.55;;;33.00;72.20;;;;;;5034245;28;20077;-70
2022/06/28 12:47:41;;;;;;;6.10;3.78;;;32.70;72.60;;;;;;5035362;28;20543;-71
2022/06/28 12:50:15;;;;;;;4.32;3.53;;;32.80;72.90;;;;;;5037957;28;20059;-71
2022/06/28 12:52:44;;;;;;;5.38;3.67;;;32.70;71.60;;;;;;5033721;28;20045;-71
2022/06/28 12:55:13;;;;;;;6.65;3.35;;;32.80;73.40;;;;;;5034938;28;20050;-70
2022/06/28 12:57:41;;;;;;;5.05;3.20;;;32.80;72.60;;;;;;5038787;28;20053;-71
2022/06/28 13:00:11;;;;;;;6.30;3.58;;;32.80;71.70;;;;;;5035873;28;20116;-71
2022/06/28 13:02:38;;;;;;;4.50;3.20;;;32.90;72.50;;;;;;5033041;28;20064;-70
2022/06/28 13:05:06;;;;;;;6.25;4.00;;;32.90;71.40;;;;;;5015713;28;20050;-70
2022/06/28 13:07:34;;;;;;;5.25;3.75;;;32.80;72.00;;;;;;5020343;28;20060;-70
2022/06/28 13:10:01;;;;;;;10.30;4.03;;;33.00;71.90;;;;;;5033900;28;20042;-71
2022/06/28 13:12:31;;;;;;;6.22;5.18;;;33.10;72.00;;;;;;5034342;28;20410;-71
2022/06/28 13:14:58;;;;;;;5.57;3.47;;;33.20;71.10;;;;;;5033642;28;20115;-71
2022/06/28 13:17:25;;;;;;;9.95;4.00;;;33.30;71.50;;;;;;5036247;28;20042;-70
2022/06/28 13:19:53;;;;;;;9.95;6.55;;;33.20;72.20;;;;;;5035679;28;20045;-71